sensor_id;sensor_type;location;lat;lon;timestamp;P1;durP1;ratioP1;P2;durP2;ratioP2
67798;SDS011;54596;43.216;27.904;2022-10-31T00:01:21;27.50;;;17.42;;
67798;SDS011;54596;43.216;27.904;2022-10-31T00:03:50;24.48;;;17.85;;
67798;SDS011;54596;43.216;27.904;2022-10-31T00:06:15;26.08;;;17.95;;
67798;SDS011;54596;43.216;27.904;2022-10-31T00:08:45;28.85;;;17.90;;
67798;SDS011;54596;43.216;27.904;2022-10-31T00:11:11;28.55;;;17.63;;
67798;SDS011;54596;43.216;27.904;2022-10-31T00:13:37;24.80;;;17.50;;
67798;SDS011;54596;43.216;27.904;2022-10-31T00:16:03;26.48;;;17.13;;
67798;SDS011;54596;43.216;27.904;2022-10-31T00:18:29;24.48;;;17.70;;
67798;SDS011;54596;43.216;27.904;2022-10-31T00:21:00;24.98;;;17.83;;
67798;SDS011;54596;43.216;27.904;2022-10-31T00:23:27;29.25;;;18.23;;
67798;SDS011;54596;43.216;27.904;2022-10-31T00:25:52;29.13;;;18.20;;
67798;SDS011;54596;43.216;27.904;2022-10-31T00:28:18;27.92;;;17.67;;
67798;SDS011;54596;43.216;27.904;2022-10-31T00:30:43;27.42;;;18.05;;
67798;SDS011;54596;43.216;27.904;2022-10-31T00:33:08;24.52;;;17.92;;
67798;SDS011;54596;43.216;27.904;2022-10-31T00:35:34;25.67;;;17.65;;
67798;SDS011;54596;43.216;27.904;2022-10-31T00:37:59;24.60;;;17.88;;
67798;SDS011;54596;43.216;27.904;2022-10-31T00:40:25;27.08;;;17.10;;
67798;SDS011;54596;43.216;27.904;2022-10-31T00:42:50;26.70;;;17.83;;
67798;SDS011;54596;43.216;27.904;2022-10-31T00:45:16;29.85;;;17.60;;
67798;SDS011;54596;43.216;27.904;2022-10-31T00:47:42;30.35;;;18.77;;
67798;SDS011;54596;43.216;27.904;2022-10-31T00:50:07;24.52;;;17.50;;
67798;SDS011;54596;43.216;27.904;2022-10-31T00:52:33;28.23;;;17.40;;
67798;SDS011;54596;43.216;27.904;2022-10-31T00:54:59;25.92;;;18.13;;
67798;SDS011;54596;43.216;27.904;2022-10-31T00:57:24;29.88;;;18.73;;
67798;SDS011;54596;43.216;27.904;2022-10-31T00:59:50;29.90;;;18.42;;
67798;SDS011;54596;43.216;27.904;2022-10-31T01:02:15;26.27;;;18.02;;
67798;SDS011;54596;43.216;27.904;2022-10-31T01:04:40;25.98;;;19.00;;
67798;SDS011;54596;43.216;27.904;2022-10-31T01:07:06;29.83;;;18.92;;
67798;SDS011;54596;43.216;27.904;2022-10-31T01:09:32;31.88;;;19.77;;
67798;SDS011;54596;43.216;27.904;2022-10-31T01:11:57;30.23;;;19.13;;
67798;SDS011;54596;43.216;27.904;2022-10-31T01:14:22;28.67;;;18.23;;
67798;SDS011;54596;43.216;27.904;2022-10-31T01:16:48;30.70;;;18.83;;
67798;SDS011;54596;43.216;27.904;2022-10-31T01:19:13;27.58;;;18.38;;
67798;SDS011;54596;43.216;27.904;2022-10-31T01:21:39;31.55;;;18.95;;
67798;SDS011;54596;43.216;27.904;2022-10-31T01:24:04;26.55;;;18.48;;
67798;SDS011;54596;43.216;27.904;2022-10-31T01:26:31;26.20;;;17.75;;
67798;SDS011;54596;43.216;27.904;2022-10-31T01:28:59;29.20;;;18.98;;
67798;SDS011;54596;43.216;27.904;2022-10-31T01:31:26;29.35;;;19.55;;
67798;SDS011;54596;43.216;27.904;2022-10-31T01:33:54;31.85;;;20.35;;
67798;SDS011;54596;43.216;27.904;2022-10-31T01:36:31;30.15;;;19.55;;
67798;SDS011;54596;43.216;27.904;2022-10-31T01:39:02;32.65;;;19.58;;
67798;SDS011;54596;43.216;27.904;2022-10-31T01:41:31;30.30;;;18.98;;
67798;SDS011;54596;43.216;27.904;2022-10-31T01:43:59;28.85;;;19.23;;
67798;SDS011;54596;43.216;27.904;2022-10-31T01:46:49;32.80;;;18.85;;
67798;SDS011;54596;43.216;27.904;2022-10-31T01:51:51;28.13;;;19.63;;
67798;SDS011;54596;43.216;27.904;2022-10-31T01:54:23;29.35;;;19.27;;
67798;SDS011;54596;43.216;27.904;2022-10-31T01:56:55;35.03;;;19.27;;
67798;SDS011;54596;43.216;27.904;2022-10-31T01:59:22;28.00;;;18.77;;
67798;SDS011;54596;43.216;27.904;2022-10-31T02:01:50;38.13;;;26.17;;
67798;SDS011;54596;43.216;27.904;2022-10-31T02:04:17;50.15;;;39.88;;
67798;SDS011;54596;43.216;27.904;2022-10-31T02:06:52;49.10;;;40.28;;
67798;SDS011;54596;43.216;27.904;2022-10-31T02:09:20;27.50;;;20.95;;
67798;SDS011;54596;43.216;27.904;2022-10-31T02:11:49;32.28;;;20.27;;
67798;SDS011;54596;43.216;27.904;2022-10-31T02:14:17;33.85;;;20.88;;
67798;SDS011;54596;43.216;27.904;2022-10-31T02:16:43;30.80;;;20.58;;
67798;SDS011;54596;43.216;27.904;2022-10-31T02:19:09;32.80;;;20.33;;
67798;SDS011;54596;43.216;27.904;2022-10-31T02:21:42;29.27;;;20.15;;
67798;SDS011;54596;43.216;27.904;2022-10-31T02:24:33;30.05;;;20.52;;
67798;SDS011;54596;43.216;27.904;2022-10-31T02:30:12;34.53;;;21.38;;
67798;SDS011;54596;43.216;27.904;2022-10-31T02:38:10;32.30;;;20.90;;
67798;SDS011;54596;43.216;27.904;2022-10-31T02:43:44;29.05;;;20.38;;
67798;SDS011;54596;43.216;27.904;2022-10-31T02:46:38;34.60;;;19.98;;
67798;SDS011;54596;43.216;27.904;2022-10-31T02:49:56;31.02;;;19.77;;
67798;SDS011;54596;43.216;27.904;2022-10-31T02:52:17;28.88;;;19.73;;
67798;SDS011;54596;43.216;27.904;2022-10-31T02:54:44;32.60;;;21.02;;
67798;SDS011;54596;43.216;27.904;2022-10-31T02:57:11;29.63;;;19.90;;
67798;SDS011;54596;43.216;27.904;2022-10-31T02:59:40;31.67;;;19.15;;
67798;SDS011;54596;43.216;27.904;2022-10-31T03:05:14;27.90;;;20.30;;
67798;SDS011;54596;43.216;27.904;2022-10-31T03:15:50;31.02;;;20.33;;
67798;SDS011;54596;43.216;27.904;2022-10-31T03:21:09;31.48;;;20.92;;
67798;SDS011;54596;43.216;27.904;2022-10-31T03:23:39;29.27;;;20.27;;
67798;SDS011;54596;43.216;27.904;2022-10-31T03:26:07;31.70;;;21.13;;
67798;SDS011;54596;43.216;27.904;2022-10-31T03:28:44;28.80;;;20.08;;
67798;SDS011;54596;43.216;27.904;2022-10-31T03:31:17;31.52;;;21.00;;
67798;SDS011;54596;43.216;27.904;2022-10-31T03:33:44;30.58;;;21.42;;
67798;SDS011;54596;43.216;27.904;2022-10-31T03:36:13;35.40;;;22.23;;
67798;SDS011;54596;43.216;27.904;2022-10-31T03:38:40;34.70;;;22.25;;
67798;SDS011;54596;43.216;27.904;2022-10-31T03:41:07;34.20;;;23.02;;
67798;SDS011;54596;43.216;27.904;2022-10-31T03:43:40;34.22;;;22.75;;
67798;SDS011;54596;43.216;27.904;2022-10-31T03:46:11;38.33;;;24.25;;
67798;SDS011;54596;43.216;27.904;2022-10-31T03:48:36;36.90;;;24.00;;
67798;SDS011;54596;43.216;27.904;2022-10-31T03:53:43;40.17;;;24.33;;
67798;SDS011;54596;43.216;27.904;2022-10-31T03:59:13;34.55;;;24.45;;
67798;SDS011;54596;43.216;27.904;2022-10-31T04:02:09;39.20;;;25.40;;
67798;SDS011;54596;43.216;27.904;2022-10-31T04:04:38;37.13;;;24.85;;
67798;SDS011;54596;43.216;27.904;2022-10-31T04:07:04;36.25;;;24.55;;
67798;SDS011;54596;43.216;27.904;2022-10-31T04:09:32;35.95;;;24.20;;
67798;SDS011;54596;43.216;27.904;2022-10-31T04:12:01;36.80;;;25.02;;
67798;SDS011;54596;43.216;27.904;2022-10-31T04:14:31;39.13;;;25.48;;
67798;SDS011;54596;43.216;27.904;2022-10-31T04:16:58;40.00;;;24.65;;
67798;SDS011;54596;43.216;27.904;2022-10-31T04:19:26;45.65;;;25.45;;
67798;SDS011;54596;43.216;27.904;2022-10-31T04:21:52;36.90;;;25.63;;
67798;SDS011;54596;43.216;27.904;2022-10-31T04:24:17;41.38;;;26.95;;
67798;SDS011;54596;43.216;27.904;2022-10-31T04:26:43;49.42;;;28.30;;
67798;SDS011;54596;43.216;27.904;2022-10-31T04:29:09;42.10;;;25.98;;
67798;SDS011;54596;43.216;27.904;2022-10-31T04:31:34;40.03;;;24.70;;
67798;SDS011;54596;43.216;27.904;2022-10-31T04:34:00;42.25;;;24.95;;
67798;SDS011;54596;43.216;27.904;2022-10-31T04:36:25;44.38;;;26.15;;
67798;SDS011;54596;43.216;27.904;2022-10-31T04:38:51;41.42;;;26.52;;
67798;SDS011;54596;43.216;27.904;2022-10-31T04:41:16;40.83;;;25.13;;
67798;SDS011;54596;43.216;27.904;2022-10-31T04:43:41;38.47;;;25.45;;
67798;SDS011;54596;43.216;27.904;2022-10-31T04:46:07;40.47;;;24.98;;
67798;SDS011;54596;43.216;27.904;2022-10-31T04:48:32;36.33;;;23.30;;
67798;SDS011;54596;43.216;27.904;2022-10-31T04:50:59;40.42;;;24.42;;
67798;SDS011;54596;43.216;27.904;2022-10-31T04:53:25;40.17;;;25.02;;
67798;SDS011;54596;43.216;27.904;2022-10-31T04:55:50;40.92;;;24.80;;
67798;SDS011;54596;43.216;27.904;2022-10-31T04:58:15;41.88;;;24.38;;
67798;SDS011;54596;43.216;27.904;2022-10-31T05:00:41;46.75;;;24.95;;
67798;SDS011;54596;43.216;27.904;2022-10-31T05:03:06;41.67;;;25.05;;
67798;SDS011;54596;43.216;27.904;2022-10-31T05:05:32;43.70;;;25.75;;
67798;SDS011;54596;43.216;27.904;2022-10-31T05:07:58;48.08;;;25.63;;
67798;SDS011;54596;43.216;27.904;2022-10-31T05:10:24;44.67;;;27.35;;
67798;SDS011;54596;43.216;27.904;2022-10-31T05:12:52;52.63;;;32.13;;
67798;SDS011;54596;43.216;27.904;2022-10-31T05:15:20;58.92;;;35.63;;
67798;SDS011;54596;43.216;27.904;2022-10-31T05:17:47;51.17;;;32.05;;
67798;SDS011;54596;43.216;27.904;2022-10-31T05:20:14;51.08;;;32.25;;
67798;SDS011;54596;43.216;27.904;2022-10-31T05:22:47;57.45;;;36.45;;
67798;SDS011;54596;43.216;27.904;2022-10-31T05:25:16;48.83;;;32.08;;
67798;SDS011;54596;43.216;27.904;2022-10-31T05:27:43;79.80;;;54.20;;
67798;SDS011;54596;43.216;27.904;2022-10-31T05:30:10;71.45;;;45.97;;
67798;SDS011;54596;43.216;27.904;2022-10-31T05:32:40;95.55;;;68.88;;
67798;SDS011;54596;43.216;27.904;2022-10-31T05:35:07;54.80;;;34.65;;
67798;SDS011;54596;43.216;27.904;2022-10-31T05:37:37;60.17;;;34.17;;
67798;SDS011;54596;43.216;27.904;2022-10-31T05:40:04;64.88;;;36.13;;
67798;SDS011;54596;43.216;27.904;2022-10-31T05:42:30;67.85;;;39.35;;
67798;SDS011;54596;43.216;27.904;2022-10-31T05:44:56;64.70;;;36.28;;
67798;SDS011;54596;43.216;27.904;2022-10-31T05:47:22;57.78;;;31.73;;
67798;SDS011;54596;43.216;27.904;2022-10-31T05:49:47;59.03;;;33.63;;
67798;SDS011;54596;43.216;27.904;2022-10-31T05:52:13;56.35;;;33.72;;
67798;SDS011;54596;43.216;27.904;2022-10-31T05:54:38;57.63;;;33.33;;
67798;SDS011;54596;43.216;27.904;2022-10-31T05:57:04;55.03;;;31.08;;
67798;SDS011;54596;43.216;27.904;2022-10-31T05:59:29;62.13;;;34.50;;
67798;SDS011;54596;43.216;27.904;2022-10-31T06:01:55;52.40;;;30.92;;
67798;SDS011;54596;43.216;27.904;2022-10-31T06:04:20;53.40;;;30.15;;
67798;SDS011;54596;43.216;27.904;2022-10-31T06:06:45;50.75;;;28.48;;
67798;SDS011;54596;43.216;27.904;2022-10-31T06:09:11;54.05;;;30.13;;
67798;SDS011;54596;43.216;27.904;2022-10-31T06:11:37;51.08;;;33.08;;
67798;SDS011;54596;43.216;27.904;2022-10-31T06:14:03;52.25;;;34.53;;
67798;SDS011;54596;43.216;27.904;2022-10-31T06:16:29;48.35;;;33.15;;
67798;SDS011;54596;43.216;27.904;2022-10-31T06:18:55;51.20;;;29.92;;
67798;SDS011;54596;43.216;27.904;2022-10-31T06:21:20;45.65;;;26.15;;
67798;SDS011;54596;43.216;27.904;2022-10-31T06:23:46;42.97;;;26.65;;
67798;SDS011;54596;43.216;27.904;2022-10-31T06:26:11;44.42;;;24.75;;
67798;SDS011;54596;43.216;27.904;2022-10-31T06:28:37;41.22;;;23.98;;
67798;SDS011;54596;43.216;27.904;2022-10-31T06:31:02;37.42;;;23.85;;
67798;SDS011;54596;43.216;27.904;2022-10-31T06:33:28;54.67;;;33.83;;
67798;SDS011;54596;43.216;27.904;2022-10-31T06:35:54;51.35;;;27.23;;
67798;SDS011;54596;43.216;27.904;2022-10-31T06:38:19;46.08;;;26.48;;
67798;SDS011;54596;43.216;27.904;2022-10-31T06:40:46;43.33;;;27.60;;
67798;SDS011;54596;43.216;27.904;2022-10-31T06:43:11;41.22;;;25.50;;
67798;SDS011;54596;43.216;27.904;2022-10-31T06:45:40;42.47;;;23.77;;
67798;SDS011;54596;43.216;27.904;2022-10-31T06:48:05;50.08;;;31.75;;
67798;SDS011;54596;43.216;27.904;2022-10-31T06:50:31;54.97;;;34.22;;
67798;SDS011;54596;43.216;27.904;2022-10-31T06:52:57;55.47;;;30.52;;
67798;SDS011;54596;43.216;27.904;2022-10-31T06:55:23;52.50;;;34.50;;
67798;SDS011;54596;43.216;27.904;2022-10-31T06:57:53;50.83;;;30.70;;
67798;SDS011;54596;43.216;27.904;2022-10-31T07:00:20;47.67;;;28.45;;
67798;SDS011;54596;43.216;27.904;2022-10-31T07:02:53;48.35;;;28.30;;
67798;SDS011;54596;43.216;27.904;2022-10-31T07:05:25;48.05;;;30.65;;
67798;SDS011;54596;43.216;27.904;2022-10-31T07:07:54;53.33;;;30.23;;
67798;SDS011;54596;43.216;27.904;2022-10-31T07:10:25;51.35;;;30.58;;
67798;SDS011;54596;43.216;27.904;2022-10-31T07:12:55;54.53;;;30.10;;
67798;SDS011;54596;43.216;27.904;2022-10-31T07:15:21;49.15;;;27.83;;
67798;SDS011;54596;43.216;27.904;2022-10-31T07:17:47;49.17;;;26.45;;
67798;SDS011;54596;43.216;27.904;2022-10-31T07:20:13;53.17;;;30.02;;
67798;SDS011;54596;43.216;27.904;2022-10-31T07:22:38;49.17;;;34.00;;
67798;SDS011;54596;43.216;27.904;2022-10-31T07:25:04;42.97;;;27.10;;
67798;SDS011;54596;43.216;27.904;2022-10-31T07:27:39;51.33;;;30.45;;
67798;SDS011;54596;43.216;27.904;2022-10-31T07:30:06;54.67;;;32.45;;
67798;SDS011;54596;43.216;27.904;2022-10-31T07:35:28;50.72;;;29.88;;
67798;SDS011;54596;43.216;27.904;2022-10-31T07:37:54;45.75;;;27.35;;
67798;SDS011;54596;43.216;27.904;2022-10-31T07:40:20;41.72;;;26.05;;
67798;SDS011;54596;43.216;27.904;2022-10-31T07:42:48;42.95;;;25.65;;
67798;SDS011;54596;43.216;27.904;2022-10-31T07:45:16;37.88;;;23.48;;
67798;SDS011;54596;43.216;27.904;2022-10-31T07:50:09;38.90;;;23.70;;
67798;SDS011;54596;43.216;27.904;2022-10-31T07:52:35;36.60;;;22.77;;
67798;SDS011;54596;43.216;27.904;2022-10-31T07:55:01;39.33;;;22.58;;
67798;SDS011;54596;43.216;27.904;2022-10-31T07:57:27;29.30;;;19.42;;
67798;SDS011;54596;43.216;27.904;2022-10-31T07:59:53;35.28;;;20.92;;
67798;SDS011;54596;43.216;27.904;2022-10-31T08:02:19;37.83;;;20.95;;
67798;SDS011;54596;43.216;27.904;2022-10-31T08:04:44;33.15;;;19.80;;
67798;SDS011;54596;43.216;27.904;2022-10-31T08:07:10;34.72;;;19.95;;
67798;SDS011;54596;43.216;27.904;2022-10-31T08:09:35;32.35;;;18.30;;
67798;SDS011;54596;43.216;27.904;2022-10-31T08:12:00;26.95;;;16.90;;
67798;SDS011;54596;43.216;27.904;2022-10-31T08:14:26;26.67;;;16.52;;
67798;SDS011;54596;43.216;27.904;2022-10-31T08:16:52;28.45;;;16.67;;
67798;SDS011;54596;43.216;27.904;2022-10-31T08:19:18;25.98;;;17.00;;
67798;SDS011;54596;43.216;27.904;2022-10-31T08:21:44;27.00;;;19.27;;
67798;SDS011;54596;43.216;27.904;2022-10-31T08:24:09;26.10;;;17.50;;
67798;SDS011;54596;43.216;27.904;2022-10-31T08:26:35;27.98;;;17.58;;
67798;SDS011;54596;43.216;27.904;2022-10-31T08:29:00;26.60;;;17.42;;
67798;SDS011;54596;43.216;27.904;2022-10-31T08:31:26;25.92;;;17.55;;
67798;SDS011;54596;43.216;27.904;2022-10-31T08:33:53;26.98;;;17.15;;
67798;SDS011;54596;43.216;27.904;2022-10-31T08:36:19;29.90;;;18.40;;
67798;SDS011;54596;43.216;27.904;2022-10-31T08:38:46;29.88;;;18.10;;
67798;SDS011;54596;43.216;27.904;2022-10-31T08:41:12;31.90;;;21.00;;
67798;SDS011;54596;43.216;27.904;2022-10-31T08:43:37;32.97;;;19.63;;
67798;SDS011;54596;43.216;27.904;2022-10-31T08:46:03;29.73;;;16.38;;
67798;SDS011;54596;43.216;27.904;2022-10-31T08:48:29;23.88;;;15.55;;
67798;SDS011;54596;43.216;27.904;2022-10-31T08:50:56;33.35;;;18.10;;
67798;SDS011;54596;43.216;27.904;2022-10-31T08:53:23;31.23;;;17.98;;
67798;SDS011;54596;43.216;27.904;2022-10-31T08:55:48;29.67;;;16.08;;
67798;SDS011;54596;43.216;27.904;2022-10-31T08:58:17;28.77;;;16.30;;
67798;SDS011;54596;43.216;27.904;2022-10-31T09:00:44;30.33;;;15.95;;
67798;SDS011;54596;43.216;27.904;2022-10-31T09:03:12;28.77;;;17.05;;
67798;SDS011;54596;43.216;27.904;2022-10-31T09:05:42;29.75;;;17.17;;
67798;SDS011;54596;43.216;27.904;2022-10-31T09:08:08;32.90;;;18.55;;
67798;SDS011;54596;43.216;27.904;2022-10-31T09:10:34;40.60;;;18.90;;
67798;SDS011;54596;43.216;27.904;2022-10-31T09:13:02;33.28;;;19.92;;
67798;SDS011;54596;43.216;27.904;2022-10-31T09:15:33;36.67;;;19.45;;
67798;SDS011;54596;43.216;27.904;2022-10-31T09:18:00;34.15;;;19.17;;
67798;SDS011;54596;43.216;27.904;2022-10-31T09:20:26;40.97;;;20.52;;
67798;SDS011;54596;43.216;27.904;2022-10-31T09:22:58;30.63;;;17.50;;
67798;SDS011;54596;43.216;27.904;2022-10-31T09:25:25;27.05;;;14.75;;
67798;SDS011;54596;43.216;27.904;2022-10-31T09:27:55;31.33;;;17.42;;
67798;SDS011;54596;43.216;27.904;2022-10-31T09:30:28;25.67;;;14.73;;
67798;SDS011;54596;43.216;27.904;2022-10-31T09:32:55;29.45;;;16.85;;
67798;SDS011;54596;43.216;27.904;2022-10-31T09:35:22;20.70;;;11.98;;
67798;SDS011;54596;43.216;27.904;2022-10-31T09:37:53;18.45;;;9.43;;
67798;SDS011;54596;43.216;27.904;2022-10-31T09:41:01;21.42;;;10.60;;
67798;SDS011;54596;43.216;27.904;2022-10-31T09:46:15;16.77;;;11.13;;
67798;SDS011;54596;43.216;27.904;2022-10-31T09:48:45;28.13;;;14.48;;
67798;SDS011;54596;43.216;27.904;2022-10-31T09:56:44;20.35;;;12.57;;
67798;SDS011;54596;43.216;27.904;2022-10-31T10:04:40;19.60;;;10.55;;
67798;SDS011;54596;43.216;27.904;2022-10-31T10:07:22;22.45;;;11.13;;
67798;SDS011;54596;43.216;27.904;2022-10-31T10:10:12;21.73;;;12.35;;
67798;SDS011;54596;43.216;27.904;2022-10-31T10:12:47;21.63;;;11.45;;
67798;SDS011;54596;43.216;27.904;2022-10-31T10:20:58;20.58;;;11.30;;
67798;SDS011;54596;43.216;27.904;2022-10-31T10:28:43;16.17;;;10.27;;
67798;SDS011;54596;43.216;27.904;2022-10-31T10:31:37;19.90;;;10.40;;
67798;SDS011;54596;43.216;27.904;2022-10-31T10:36:32;18.42;;;9.93;;
67798;SDS011;54596;43.216;27.904;2022-10-31T10:39:03;16.65;;;9.00;;
67798;SDS011;54596;43.216;27.904;2022-10-31T10:44:08;17.40;;;9.60;;
67798;SDS011;54596;43.216;27.904;2022-10-31T10:59:45;20.05;;;9.45;;
67798;SDS011;54596;43.216;27.904;2022-10-31T11:02:22;18.27;;;8.88;;
67798;SDS011;54596;43.216;27.904;2022-10-31T11:04:51;15.88;;;9.23;;
67798;SDS011;54596;43.216;27.904;2022-10-31T11:07:18;17.67;;;9.02;;
67798;SDS011;54596;43.216;27.904;2022-10-31T11:09:43;16.90;;;8.82;;
67798;SDS011;54596;43.216;27.904;2022-10-31T11:15:00;15.73;;;7.53;;
67798;SDS011;54596;43.216;27.904;2022-10-31T11:22:26;17.05;;;7.57;;
67798;SDS011;54596;43.216;27.904;2022-10-31T11:24:51;18.67;;;8.98;;
67798;SDS011;54596;43.216;27.904;2022-10-31T11:27:21;18.15;;;9.00;;
67798;SDS011;54596;43.216;27.904;2022-10-31T11:29:48;16.77;;;8.00;;
67798;SDS011;54596;43.216;27.904;2022-10-31T11:34:48;15.80;;;7.38;;
67798;SDS011;54596;43.216;27.904;2022-10-31T11:37:21;16.58;;;8.07;;
67798;SDS011;54596;43.216;27.904;2022-10-31T11:39:51;15.38;;;7.68;;
67798;SDS011;54596;43.216;27.904;2022-10-31T11:42:28;15.90;;;7.88;;
67798;SDS011;54596;43.216;27.904;2022-10-31T11:47:28;18.20;;;8.63;;
67798;SDS011;54596;43.216;27.904;2022-10-31T11:49:57;13.82;;;7.85;;
67798;SDS011;54596;43.216;27.904;2022-10-31T11:52:27;16.20;;;8.32;;
67798;SDS011;54596;43.216;27.904;2022-10-31T11:54:57;16.30;;;8.05;;
67798;SDS011;54596;43.216;27.904;2022-10-31T11:57:25;15.35;;;7.50;;
67798;SDS011;54596;43.216;27.904;2022-10-31T11:59:52;14.18;;;7.88;;
67798;SDS011;54596;43.216;27.904;2022-10-31T12:02:20;12.43;;;7.50;;
67798;SDS011;54596;43.216;27.904;2022-10-31T12:04:50;15.65;;;7.30;;
67798;SDS011;54596;43.216;27.904;2022-10-31T12:07:20;13.63;;;7.07;;
67798;SDS011;54596;43.216;27.904;2022-10-31T12:09:47;14.13;;;7.68;;
67798;SDS011;54596;43.216;27.904;2022-10-31T12:35:13;21.80;;;8.30;;
67798;SDS011;54596;43.216;27.904;2022-10-31T12:37:50;17.85;;;7.85;;
67798;SDS011;54596;43.216;27.904;2022-10-31T12:45:58;17.95;;;8.07;;
67798;SDS011;54596;43.216;27.904;2022-10-31T12:48:28;18.60;;;7.82;;
67798;SDS011;54596;43.216;27.904;2022-10-31T13:00:11;14.93;;;7.65;;
67798;SDS011;54596;43.216;27.904;2022-10-31T13:05:31;16.85;;;8.00;;
67798;SDS011;54596;43.216;27.904;2022-10-31T13:10:40;16.85;;;7.65;;
67798;SDS011;54596;43.216;27.904;2022-10-31T13:13:14;15.63;;;7.95;;
67798;SDS011;54596;43.216;27.904;2022-10-31T13:15:49;15.88;;;7.43;;
67798;SDS011;54596;43.216;27.904;2022-10-31T13:19:03;17.77;;;8.02;;
67798;SDS011;54596;43.216;27.904;2022-10-31T13:21:10;15.48;;;8.07;;
67798;SDS011;54596;43.216;27.904;2022-10-31T13:23:42;16.83;;;7.95;;
67798;SDS011;54596;43.216;27.904;2022-10-31T13:26:12;19.70;;;8.05;;
67798;SDS011;54596;43.216;27.904;2022-10-31T13:28:46;18.00;;;7.80;;
67798;SDS011;54596;43.216;27.904;2022-10-31T13:31:15;14.73;;;7.90;;
67798;SDS011;54596;43.216;27.904;2022-10-31T13:33:48;17.13;;;7.47;;
67798;SDS011;54596;43.216;27.904;2022-10-31T13:36:20;20.13;;;8.02;;
67798;SDS011;54596;43.216;27.904;2022-10-31T13:44:43;16.83;;;7.72;;
67798;SDS011;54596;43.216;27.904;2022-10-31T13:47:23;16.55;;;7.20;;
67798;SDS011;54596;43.216;27.904;2022-10-31T13:56:02;14.82;;;7.45;;
67798;SDS011;54596;43.216;27.904;2022-10-31T13:58:31;16.75;;;8.00;;
67798;SDS011;54596;43.216;27.904;2022-10-31T14:03:28;13.30;;;7.50;;
67798;SDS011;54596;43.216;27.904;2022-10-31T14:05:55;18.48;;;8.00;;
67798;SDS011;54596;43.216;27.904;2022-10-31T14:08:22;14.75;;;7.47;;
67798;SDS011;54596;43.216;27.904;2022-10-31T14:10:52;20.15;;;7.75;;
67798;SDS011;54596;43.216;27.904;2022-10-31T14:13:34;16.48;;;8.00;;
67798;SDS011;54596;43.216;27.904;2022-10-31T14:16:23;14.25;;;7.18;;
67798;SDS011;54596;43.216;27.904;2022-10-31T14:18:57;17.63;;;8.10;;
67798;SDS011;54596;43.216;27.904;2022-10-31T14:21:29;22.02;;;8.32;;
67798;SDS011;54596;43.216;27.904;2022-10-31T14:23:57;17.30;;;8.20;;
67798;SDS011;54596;43.216;27.904;2022-10-31T14:28:51;18.60;;;8.65;;
67798;SDS011;54596;43.216;27.904;2022-10-31T14:31:29;16.80;;;8.05;;
67798;SDS011;54596;43.216;27.904;2022-10-31T14:34:00;15.38;;;8.13;;
67798;SDS011;54596;43.216;27.904;2022-10-31T14:36:59;17.65;;;8.65;;
67798;SDS011;54596;43.216;27.904;2022-10-31T14:39:49;17.88;;;8.93;;
67798;SDS011;54596;43.216;27.904;2022-10-31T14:50:23;21.23;;;10.10;;
67798;SDS011;54596;43.216;27.904;2022-10-31T14:52:59;18.77;;;9.68;;
67798;SDS011;54596;43.216;27.904;2022-10-31T14:55:27;19.73;;;9.73;;
67798;SDS011;54596;43.216;27.904;2022-10-31T14:57:57;21.25;;;9.98;;
67798;SDS011;54596;43.216;27.904;2022-10-31T15:00:25;26.38;;;9.15;;
67798;SDS011;54596;43.216;27.904;2022-10-31T15:06:02;21.05;;;10.02;;
67798;SDS011;54596;43.216;27.904;2022-10-31T15:08:37;19.58;;;9.68;;
67798;SDS011;54596;43.216;27.904;2022-10-31T15:11:20;21.58;;;9.38;;
67798;SDS011;54596;43.216;27.904;2022-10-31T15:13:53;21.90;;;10.30;;
67798;SDS011;54596;43.216;27.904;2022-10-31T15:16:27;27.00;;;13.23;;
67798;SDS011;54596;43.216;27.904;2022-10-31T15:19:03;21.42;;;9.35;;
67798;SDS011;54596;43.216;27.904;2022-10-31T15:21:32;19.90;;;9.45;;
67798;SDS011;54596;43.216;27.904;2022-10-31T15:23:59;21.30;;;9.90;;
67798;SDS011;54596;43.216;27.904;2022-10-31T15:26:29;18.23;;;10.13;;
67798;SDS011;54596;43.216;27.904;2022-10-31T15:29:10;24.67;;;12.68;;
67798;SDS011;54596;43.216;27.904;2022-10-31T15:31:37;19.25;;;9.75;;
67798;SDS011;54596;43.216;27.904;2022-10-31T15:34:04;25.73;;;10.35;;
67798;SDS011;54596;43.216;27.904;2022-10-31T15:36:32;27.77;;;11.20;;
67798;SDS011;54596;43.216;27.904;2022-10-31T15:38:58;21.63;;;11.18;;
67798;SDS011;54596;43.216;27.904;2022-10-31T15:41:26;23.10;;;10.90;;
67798;SDS011;54596;43.216;27.904;2022-10-31T15:44:04;28.77;;;11.85;;
67798;SDS011;54596;43.216;27.904;2022-10-31T15:46:40;24.35;;;12.52;;
67798;SDS011;54596;43.216;27.904;2022-10-31T15:49:12;25.08;;;12.88;;
67798;SDS011;54596;43.216;27.904;2022-10-31T15:51:51;23.02;;;11.98;;
67798;SDS011;54596;43.216;27.904;2022-10-31T15:54:17;23.95;;;11.95;;
67798;SDS011;54596;43.216;27.904;2022-10-31T15:56:43;21.52;;;11.20;;
67798;SDS011;54596;43.216;27.904;2022-10-31T15:59:13;26.67;;;11.88;;
67798;SDS011;54596;43.216;27.904;2022-10-31T16:01:53;26.55;;;13.88;;
67798;SDS011;54596;43.216;27.904;2022-10-31T16:04:29;22.80;;;12.40;;
67798;SDS011;54596;43.216;27.904;2022-10-31T16:07:02;25.10;;;12.60;;
67798;SDS011;54596;43.216;27.904;2022-10-31T16:09:48;29.50;;;12.63;;
67798;SDS011;54596;43.216;27.904;2022-10-31T16:12:15;26.15;;;13.95;;
67798;SDS011;54596;43.216;27.904;2022-10-31T16:14:41;23.67;;;12.15;;
67798;SDS011;54596;43.216;27.904;2022-10-31T16:17:10;27.02;;;12.93;;
67798;SDS011;54596;43.216;27.904;2022-10-31T16:22:30;30.27;;;14.23;;
67798;SDS011;54596;43.216;27.904;2022-10-31T16:25:04;26.63;;;14.00;;
67798;SDS011;54596;43.216;27.904;2022-10-31T16:27:38;21.70;;;13.43;;
67798;SDS011;54596;43.216;27.904;2022-10-31T16:33:50;25.35;;;13.25;;
67798;SDS011;54596;43.216;27.904;2022-10-31T16:35:52;25.40;;;13.82;;
67798;SDS011;54596;43.216;27.904;2022-10-31T16:38:19;30.55;;;14.48;;
67798;SDS011;54596;43.216;27.904;2022-10-31T16:40:45;25.58;;;13.98;;
67798;SDS011;54596;43.216;27.904;2022-10-31T16:43:11;27.60;;;13.57;;
67798;SDS011;54596;43.216;27.904;2022-10-31T16:45:42;30.75;;;13.75;;
67798;SDS011;54596;43.216;27.904;2022-10-31T16:50:37;29.52;;;15.85;;
67798;SDS011;54596;43.216;27.904;2022-10-31T16:53:03;27.75;;;14.80;;
67798;SDS011;54596;43.216;27.904;2022-10-31T16:55:28;32.20;;;16.90;;
67798;SDS011;54596;43.216;27.904;2022-10-31T16:57:55;31.05;;;15.63;;
67798;SDS011;54596;43.216;27.904;2022-10-31T17:00:23;29.85;;;15.30;;
67798;SDS011;54596;43.216;27.904;2022-10-31T17:02:50;26.02;;;12.98;;
67798;SDS011;54596;43.216;27.904;2022-10-31T17:05:18;25.73;;;13.27;;
67798;SDS011;54596;43.216;27.904;2022-10-31T17:07:45;23.63;;;13.10;;
67798;SDS011;54596;43.216;27.904;2022-10-31T17:10:11;29.50;;;13.20;;
67798;SDS011;54596;43.216;27.904;2022-10-31T17:12:40;27.38;;;15.18;;
67798;SDS011;54596;43.216;27.904;2022-10-31T17:15:21;29.65;;;16.80;;
67798;SDS011;54596;43.216;27.904;2022-10-31T17:17:49;29.13;;;15.52;;